Time;durP1;ratioP1;P1;durP2;ratioP2;P2;SDS_P1;SDS_P2;PMS_P1;PMS_P2;Temp;Humidity;BMP_temperature;BMP_pressure;BME280_temperature;BME280_humidity;BME280_pressure;Samples;Min_cycle;Max_cycle;Signal;HPM_P1;HPM_P2
2023/01/07 00:01:41;;;;;;;1.13;0.73;;;14.60;57.20;;;;;;5071042;28;20447;-87
2023/01/07 00:04:11;;;;;;;0.80;0.70;;;14.50;57.60;;;;;;5069357;27;20494;-86
2023/01/07 00:06:40;;;;;;;0.90;0.80;;;14.50;57.60;;;;;;5091293;28;20451;-86
2023/01/07 00:09:11;;;;;;;0.90;0.80;;;14.40;57.40;;;;;;5067604;27;20458;-87
2023/01/07 00:11:40;;;;;;;1.40;1.30;;;14.50;57.60;;;;;;5071959;28;20807;-86
2023/01/07 00:14:09;;;;;;;1.30;1.20;;;14.20;57.40;;;;;;5069462;28;21072;-86
2023/01/07 00:16:37;;;;;;;1.00;0.90;;;14.20;58.00;;;;;;5087064;28;20453;-87
2023/01/07 00:19:06;;;;;;;1.47;1.37;;;14.40;58.40;;;;;;5067790;28;20458;-86
2023/01/07 00:21:34;;;;;;;1.37;0.90;;;14.40;58.20;;;;;;5070278;28;20450;-86
2023/01/07 00:24:03;;;;;;;1.70;1.47;;;14.50;57.40;;;;;;5042539;27;20463;-86
2023/01/07 00:26:31;;;;;;;1.50;1.40;;;14.40;57.50;;;;;;5088938;28;20826;-86
2023/01/07 00:28:59;;;;;;;1.10;1.00;;;14.30;57.60;;;;;;5102347;27;20561;-86
2023/01/07 00:31:28;;;;;;;1.10;1.00;;;14.40;57.90;;;;;;5088739;28;20539;-86
2023/01/07 00:34:07;;;;;;;1.60;1.20;;;14.40;57.60;;;;;;5069543;27;20443;-86
2023/01/07 00:36:38;;;;;;;1.50;1.17;;;14.40;57.80;;;;;;5069302;28;20446;-86
2023/01/07 00:39:09;;;;;;;2.23;1.40;;;14.40;57.70;;;;;;5065314;28;20948;-86
2023/01/07 00:41:36;;;;;;;1.20;1.10;;;14.40;57.20;;;;;;5070834;28;20450;-87
2023/01/07 00:44:04;;;;;;;1.30;1.10;;;14.40;58.00;;;;;;5085112;28;20486;-86
2023/01/07 00:46:31;;;;;;;1.17;1.07;;;14.50;57.70;;;;;;5084145;28;20729;-86
2023/01/07 00:49:00;;;;;;;2.77;0.90;;;14.60;57.40;;;;;;5066431;28;20913;-86
2023/01/07 00:51:27;;;;;;;2.23;1.13;;;14.70;57.50;;;;;;5085847;28;20446;-87
2023/01/07 00:53:55;;;;;;;1.10;1.00;;;14.80;57.30;;;;;;5070453;28;20447;-85
2023/01/07 00:56:22;;;;;;;1.03;0.93;;;14.80;57.00;;;;;;5052607;28;20886;-86
2023/01/07 00:58:49;;;;;;;1.10;1.00;;;14.80;57.10;;;;;;5087709;28;21064;-86
2023/01/07 01:01:17;;;;;;;2.80;1.20;;;14.80;57.00;;;;;;5067733;28;20454;-87
2023/01/07 01:03:45;;;;;;;1.00;0.90;;;14.50;57.20;;;;;;5080815;28;20813;-86
2023/01/07 01:06:15;;;;;;;1.87;1.30;;;14.40;58.30;;;;;;5079016;28;20450;-87
2023/01/07 01:08:42;;;;;;;1.40;1.10;;;14.40;58.20;;;;;;5068380;28;20459;-86
2023/01/07 01:11:12;;;;;;;1.63;1.37;;;14.40;58.10;;;;;;5083717;28;20454;-87
2023/01/07 01:13:40;;;;;;;2.40;1.30;;;14.20;58.70;;;;;;5085759;28;20841;-86
2023/01/07 01:16:09;;;;;;;1.50;1.40;;;14.40;58.70;;;;;;5069371;28;20439;-86
2023/01/07 01:18:36;;;;;;;1.57;1.27;;;14.50;58.40;;;;;;5068889;28;21038;-86
2023/01/07 01:21:05;;;;;;;5.20;2.37;;;14.40;58.20;;;;;;5049882;28;20690;-86
2023/01/07 01:23:32;;;;;;;2.27;1.93;;;14.30;58.70;;;;;;5067459;28;20462;-86
2023/01/07 01:26:04;;;;;;;3.10;1.73;;;14.40;58.70;;;;;;5069389;28;20451;-86
2023/01/07 01:28:33;;;;;;;2.80;1.83;;;14.30;58.60;;;;;;5077089;28;20474;-86
2023/01/07 01:31:01;;;;;;;6.57;2.00;;;14.40;58.50;;;;;;5066658;28;20523;-86
2023/01/07 01:33:35;;;;;;;1.50;1.27;;;14.50;58.50;;;;;;5066503;28;20502;-86
2023/01/07 01:36:04;;;;;;;11.90;7.63;;;14.40;58.20;;;;;;5066977;28;21100;-86
2023/01/07 01:38:31;;;;;;;3.37;2.30;;;14.30;58.60;;;;;;5051042;28;21009;-86
2023/01/07 01:40:58;;;;;;;3.33;3.03;;;14.30;58.70;;;;;;5062764;28;20458;-86
2023/01/07 01:43:35;;;;;;;2.67;2.47;;;14.50;58.60;;;;;;5084612;28;20451;-87
2023/01/07 01:46:04;;;;;;;3.23;2.30;;;14.50;58.40;;;;;;5066227;28;20454;-86
2023/01/07 01:48:35;;;;;;;1.60;1.50;;;14.60;58.10;;;;;;5083389;28;20812;-86
2023/01/07 01:51:03;;;;;;;3.03;1.77;;;14.60;58.20;;;;;;5047364;28;20439;-86
2023/01/07 01:53:33;;;;;;;1.60;1.50;;;14.30;58.30;;;;;;5052183;28;20455;-86
2023/01/07 01:56:03;;;;;;;2.87;1.40;;;14.30;58.50;;;;;;5075139;28;20431;-86
2023/01/07 01:58:37;;;;;;;1.40;1.30;;;14.00;58.70;;;;;;5077147;28;21150;-86
2023/01/07 02:01:05;;;;;;;2.43;1.50;;;13.90;59.40;;;;;;5078816;28;20443;-86
2023/01/07 02:03:36;;;;;;;1.90;1.80;;;13.90;59.50;;;;;;5061798;28;20555;-85
2023/01/07 02:06:05;;;;;;;2.10;1.90;;;13.90;59.70;;;;;;5064995;28;20439;-86
2023/01/07 02:08:32;;;;;;;2.10;1.90;;;13.70;60.80;;;;;;5041051;28;20463;-86
2023/01/07 02:11:12;;;;;;;2.03;1.80;;;13.90;60.40;;;;;;5082290;28;20603;-85
2023/01/07 02:14:03;;;;;;;1.80;1.70;;;13.60;61.40;;;;;;5043020;28;20451;-86
2023/01/07 02:16:40;;;;;;;2.83;1.90;;;13.50;62.40;;;;;;5069337;28;20447;-86
2023/01/07 02:19:42;;;;;;;1.80;1.60;;;13.40;63.20;;;;;;5080460;27;20474;-87
2023/01/07 02:22:21;;;;;;;1.87;1.67;;;13.60;62.90;;;;;;5083637;28;20551;-87
2023/01/07 02:25:08;;;;;;;1.43;1.23;;;13.60;62.60;;;;;;5050353;28;20465;-86
2023/01/07 02:28:08;;;;;;;1.83;1.57;;;13.70;62.50;;;;;;5059646;28;21002;-86
2023/01/07 02:30:55;;;;;;;1.50;1.40;;;13.70;61.90;;;;;;5079112;28;20454;-86
2023/01/07 02:33:37;;;;;;;1.70;1.60;;;13.90;61.50;;;;;;5051026;28;20451;-86
2023/01/07 02:36:23;;;;;;;1.57;1.47;;;13.90;61.70;;;;;;5063041;27;20448;-86
2023/01/07 02:39:04;;;;;;;2.07;1.67;;;14.00;61.20;;;;;;5078766;28;20471;-86
2023/01/07 02:41:40;;;;;;;1.80;1.53;;;13.90;61.40;;;;;;5074921;28;20861;-85
2023/01/07 02:44:13;;;;;;;2.13;1.33;;;13.90;61.30;;;;;;5060957;27;20446;-86
2023/01/07 02:46:46;;;;;;;1.60;1.50;;;13.90;60.90;;;;;;5049150;28;21038;-86
2023/01/07 02:49:16;;;;;;;2.03;1.83;;;13.90;61.20;;;;;;5066666;28;21009;-86
2023/01/07 02:51:44;;;;;;;1.57;1.47;;;14.00;61.40;;;;;;5065334;28;21013;-86
2023/01/07 02:54:16;;;;;;;3.20;1.90;;;14.10;61.20;;;;;;5061445;28;20533;-86
2023/01/07 02:57:02;;;;;;;1.90;1.70;;;14.30;60.20;;;;;;5096632;28;20500;-86
2023/01/07 02:59:50;;;;;;;2.00;1.80;;;14.20;60.20;;;;;;5067430;28;21059;-86
2023/01/07 03:02:34;;;;;;;2.30;1.90;;;14.30;59.90;;;;;;5100257;28;21104;-86
2023/01/07 03:05:17;;;;;;;3.30;1.97;;;14.40;59.90;;;;;;5072348;28;20463;-86
2023/01/07 03:08:02;;;;;;;1.90;1.70;;;14.50;59.70;;;;;;5084375;28;20477;-86
2023/01/07 03:10:37;;;;;;;1.63;1.53;;;14.40;59.90;;;;;;5067477;28;20458;-85
2023/01/07 03:13:08;;;;;;;1.50;1.40;;;14.40;59.80;;;;;;5065198;28;20455;-85
2023/01/07 03:15:40;;;;;;;2.03;1.80;;;14.40;59.60;;;;;;5043966;28;20454;-86
2023/01/07 03:18:11;;;;;;;1.30;1.20;;;14.50;59.80;;;;;;5042430;28;20462;-86
2023/01/07 03:20:43;;;;;;;1.80;1.70;;;14.50;59.40;;;;;;5081606;28;20471;-86
2023/01/07 03:23:13;;;;;;;1.93;1.83;;;14.60;59.30;;;;;;5064710;28;20931;-85
2023/01/07 03:25:43;;;;;;;3.40;2.10;;;14.70;59.10;;;;;;5050507;28;20473;-85
2023/01/07 03:28:15;;;;;;;2.00;1.67;;;14.50;59.10;;;;;;5066550;28;20507;-86
2023/01/07 03:30:43;;;;;;;1.97;1.73;;;14.60;59.10;;;;;;5069610;28;21082;-86
2023/01/07 03:33:14;;;;;;;2.10;1.90;;;14.50;59.10;;;;;;5085715;28;20454;-85
2023/01/07 03:35:47;;;;;;;2.23;1.93;;;14.50;59.30;;;;;;5055407;28;20439;-86
2023/01/07 03:38:17;;;;;;;2.17;1.97;;;14.60;59.20;;;;;;5087643;27;20472;-86
2023/01/07 03:40:44;;;;;;;1.97;1.77;;;14.70;59.20;;;;;;5070387;28;21020;-86
2023/01/07 03:43:16;;;;;;;1.93;1.83;;;14.70;58.60;;;;;;5070518;28;20481;-86
2023/01/07 03:45:45;;;;;;;3.20;1.93;;;14.80;58.90;;;;;;5054308;28;20477;-86
2023/01/07 03:48:12;;;;;;;2.70;1.90;;;14.70;58.70;;;;;;5070284;27;20467;-85
2023/01/07 03:50:39;;;;;;;2.17;1.80;;;14.60;58.80;;;;;;5073147;28;20843;-85
2023/01/07 03:53:08;;;;;;;3.53;1.63;;;14.30;59.20;;;;;;5068194;28;20450;-85
2023/01/07 03:55:37;;;;;;;1.53;1.30;;;14.10;60.20;;;;;;5072120;28;20443;-85
2023/01/07 03:58:04;;;;;;;1.73;1.63;;;14.00;60.20;;;;;;5083719;27;20511;-86
2023/01/07 04:00:31;;;;;;;3.50;1.60;;;13.80;61.00;;;;;;5057739;28;20541;-85
2023/01/07 04:03:08;;;;;;;1.73;1.50;;;13.90;61.20;;;;;;5051870;28;20469;-85
2023/01/07 04:05:39;;;;;;;1.50;1.40;;;14.10;60.60;;;;;;5056224;28;20492;-86
2023/01/07 04:08:06;;;;;;;1.40;1.30;;;14.20;60.00;;;;;;5052422;28;21600;-85
2023/01/07 04:10:37;;;;;;;1.27;1.17;;;14.30;59.70;;;;;;5071720;28;20831;-85
2023/01/07 04:13:04;;;;;;;1.83;1.50;;;14.40;59.50;;;;;;5042371;28;20487;-85
2023/01/07 04:15:31;;;;;;;1.60;1.40;;;14.10;60.10;;;;;;5051962;28;20448;-85
2023/01/07 04:17:58;;;;;;;1.40;1.30;;;14.20;60.40;;;;;;5069281;28;21557;-85
2023/01/07 04:20:26;;;;;;;1.50;1.40;;;14.30;60.00;;;;;;5072564;28;20475;-85
2023/01/07 04:22:54;;;;;;;1.30;1.20;;;14.40;59.80;;;;;;5081778;28;20450;-85
2023/01/07 04:25:21;;;;;;;1.10;1.00;;;14.50;59.70;;;;;;5069272;28;20470;-86
2023/01/07 04:27:49;;;;;;;1.97;1.43;;;14.60;59.50;;;;;;5104055;27;21043;-85
2023/01/07 04:30:16;;;;;;;1.30;1.20;;;14.60;59.30;;;;;;5085478;27;20501;-86
2023/01/07 04:32:43;;;;;;;2.17;1.40;;;14.60;59.40;;;;;;5084293;28;20508;-86
2023/01/07 04:35:11;;;;;;;3.30;1.53;;;14.60;59.20;;;;;;5066276;28;20485;-85
2023/01/07 04:37:38;;;;;;;1.40;1.30;;;14.60;59.10;;;;;;5071896;28;20463;-86
2023/01/07 04:40:07;;;;;;;1.77;1.50;;;14.60;59.20;;;;;;5067601;28;20516;-85
2023/01/07 04:42:36;;;;;;;1.67;1.57;;;14.50;59.30;;;;;;5085042;28;20465;-85
2023/01/07 04:45:06;;;;;;;2.20;1.80;;;14.60;59.50;;;;;;5061588;28;20823;-85
2023/01/07 04:47:34;;;;;;;1.60;1.50;;;14.70;59.40;;;;;;5073305;28;20812;-86
2023/01/07 04:50:01;;;;;;;3.00;1.67;;;14.70;59.20;;;;;;5047850;28;20496;-86
2023/01/07 04:52:32;;;;;;;2.07;1.43;;;14.80;59.20;;;;;;5053543;28;20526;-85
2023/01/07 04:54:59;;;;;;;2.60;1.20;;;14.80;58.90;;;;;;5076213;28;20446;-86
2023/01/07 04:57:26;;;;;;;1.70;1.60;;;14.70;58.60;;;;;;5052366;28;20475;-86
2023/01/07 04:59:54;;;;;;;6.87;1.50;;;14.60;58.50;;;;;;5098075;28;21135;-86
2023/01/07 05:02:22;;;;;;;2.23;1.40;;;14.50;58.70;;;;;;5063119;28;20505;-86
2023/01/07 05:04:49;;;;;;;1.53;1.43;;;14.50;59.00;;;;;;5042707;28;20486;-86
2023/01/07 05:07:18;;;;;;;1.60;1.50;;;14.50;59.20;;;;;;5051576;28;20446;-86
2023/01/07 05:09:45;;;;;;;2.77;1.57;;;14.50;59.10;;;;;;5069935;28;20490;-86
2023/01/07 05:12:12;;;;;;;1.70;1.60;;;14.30;59.40;;;;;;5068176;28;20470;-86
2023/01/07 05:14:41;;;;;;;2.27;1.50;;;14.30;59.70;;;;;;5070053;28;20871;-85
2023/01/07 05:17:09;;;;;;;1.57;1.30;;;14.40;59.60;;;;;;5052046;27;20445;-85
2023/01/07 05:19:39;;;;;;;3.63;2.20;;;14.20;59.80;;;;;;5057806;28;20455;-84
2023/01/07 05:22:06;;;;;;;2.53;2.10;;;14.30;60.10;;;;;;5043646;28;20515;-85
2023/01/07 05:24:36;;;;;;;2.60;2.40;;;14.50;59.90;;;;;;5048480;28;20442;-85
2023/01/07 05:27:04;;;;;;;2.20;2.00;;;14.40;59.50;;;;;;5045849;28;20471;-84
2023/01/07 05:29:31;;;;;;;1.67;1.30;;;14.20;59.80;;;;;;5056934;28;20474;-87
2023/01/07 05:31:58;;;;;;;1.63;1.53;;;14.20;60.00;;;;;;5054647;28;20799;-88
2023/01/07 05:34:26;;;;;;;1.63;1.53;;;14.30;59.90;;;;;;5063261;28;20447;-85
2023/01/07 05:36:54;;;;;;;1.77;1.60;;;14.40;59.80;;;;;;5062361;28;20988;-84
2023/01/07 05:39:21;;;;;;;1.90;1.63;;;14.40;59.60;;;;;;5040271;28;20502;-86
2023/01/07 05:41:48;;;;;;;1.87;1.50;;;14.50;59.60;;;;;;5040971;28;21064;-85
2023/01/07 05:44:16;;;;;;;2.10;1.90;;;14.50;59.40;;;;;;5064127;27;20450;-85
2023/01/07 05:46:43;;;;;;;1.70;1.60;;;14.50;59.10;;;;;;5064260;28;20471;-85
2023/01/07 05:49:10;;;;;;;1.97;1.57;;;14.40;58.80;;;;;;5045362;28;20824;-87
2023/01/07 05:51:37;;;;;;;3.07;1.47;;;14.40;59.10;;;;;;5078676;28;20443;-85
2023/01/07 05:54:06;;;;;;;1.70;1.60;;;14.30;59.20;;;;;;5079768;28;20461;-85
2023/01/07 05:56:33;;;;;;;1.97;1.67;;;14.40;59.50;;;;;;5049222;28;20805;-85
2023/01/07 05:59:00;;;;;;;1.80;1.70;;;14.40;59.50;;;;;;5044775;28;20811;-85
2023/01/07 06:01:27;;;;;;;2.97;1.80;;;14.50;59.40;;;;;;5047202;28;20453;-85
2023/01/07 06:03:54;;;;;;;2.23;2.00;;;14.60;59.30;;;;;;5048173;28;20446;-85
2023/01/07 06:06:21;;;;;;;2.30;2.10;;;14.60;59.20;;;;;;5058197;28;20467;-85
2023/01/07 06:08:48;;;;;;;3.47;2.40;;;14.60;59.30;;;;;;5077936;28;20492;-82
2023/01/07 06:11:16;;;;;;;2.43;2.23;;;14.60;59.10;;;;;;5054572;27;21001;-86
2023/01/07 06:13:43;;;;;;;5.37;3.50;;;14.70;59.10;;;;;;5065059;28;20446;-86
2023/01/07 06:16:12;;;;;;;3.23;2.87;;;14.50;59.20;;;;;;5057710;27;20446;-85
2023/01/07 06:18:39;;;;;;;4.50;2.70;;;14.50;59.80;;;;;;5064982;28;20482;-85
2023/01/07 06:21:06;;;;;;;2.50;2.00;;;14.50;59.30;;;;;;5079003;28;20478;-86
2023/01/07 06:23:33;;;;;;;3.40;2.40;;;14.20;59.90;;;;;;5064945;28;20815;-86
2023/01/07 06:26:00;;;;;;;2.67;2.47;;;14.30;60.00;;;;;;5080221;28;20688;-86
2023/01/07 06:28:28;;;;;;;3.37;2.53;;;14.30;60.10;;;;;;5062812;28;20462;-84
2023/01/07 06:30:55;;;;;;;3.23;2.83;;;14.20;60.30;;;;;;5065538;28;20455;-86
2023/01/07 06:33:22;;;;;;;3.40;3.10;;;14.30;60.10;;;;;;5063512;27;20446;-85
2023/01/07 06:35:50;;;;;;;4.20;3.03;;;14.50;60.00;;;;;;5079370;28;20458;-84
2023/01/07 06:38:17;;;;;;;6.80;3.93;;;14.50;59.70;;;;;;5046762;28;20500;-84
2023/01/07 06:40:44;;;;;;;4.80;3.57;;;14.50;59.40;;;;;;5064755;28;20516;-84
2023/01/07 06:43:11;;;;;;;4.00;2.57;;;14.50;59.30;;;;;;5062358;28;20469;-85
2023/01/07 06:45:39;;;;;;;2.50;2.30;;;14.50;59.40;;;;;;5038118;28;20472;-83
2023/01/07 06:48:06;;;;;;;4.50;2.13;;;14.60;59.40;;;;;;5097589;28;20469;-85
2023/01/07 06:50:33;;;;;;;2.10;1.90;;;14.60;59.40;;;;;;5056410;28;20521;-84
2023/01/07 06:53:00;;;;;;;3.50;2.67;;;14.60;59.30;;;;;;5063267;28;20451;-86
2023/01/07 06:55:27;;;;;;;3.50;3.03;;;14.60;59.30;;;;;;5063415;28;20443;-84
2023/01/07 06:57:54;;;;;;;4.57;3.80;;;14.60;59.30;;;;;;5080968;28;20475;-85
2023/01/07 07:00:21;;;;;;;4.63;3.97;;;14.60;59.20;;;;;;5081359;28;20435;-85
2023/01/07 07:02:49;;;;;;;5.20;4.33;;;14.60;59.20;;;;;;5065836;28;20528;-86
2023/01/07 07:05:16;;;;;;;4.93;3.77;;;14.60;59.40;;;;;;5064366;28;20520;-86
2023/01/07 07:07:43;;;;;;;4.13;3.30;;;14.60;59.30;;;;;;5103803;27;20975;-86
2023/01/07 07:10:11;;;;;;;8.53;4.50;;;14.60;59.30;;;;;;5100387;27;20694;-85
2023/01/07 07:12:39;;;;;;;7.50;5.70;;;14.60;59.20;;;;;;5086417;28;20450;-86
2023/01/07 07:15:08;;;;;;;29.13;11.70;;;14.60;59.10;;;;;;5082417;28;20454;-85
2023/01/07 07:17:35;;;;;;;19.90;10.73;;;14.50;58.90;;;;;;5063563;28;20449;-86
2023/01/07 07:20:04;;;;;;;11.17;5.93;;;14.40;59.00;;;;;;5052833;28;20458;-86
2023/01/07 07:22:31;;;;;;;5.90;5.23;;;14.40;59.20;;;;;;5073742;27;21168;-86
2023/01/07 07:24:58;;;;;;;7.27;5.50;;;14.30;59.30;;;;;;5050965;28;20451;-85
2023/01/07 07:27:25;;;;;;;6.23;4.80;;;14.10;59.80;;;;;;5084451;28;20553;-85
2023/01/07 07:29:52;;;;;;;6.80;4.90;;;13.70;60.80;;;;;;5065974;28;20452;-85
2023/01/07 07:32:19;;;;;;;6.00;5.00;;;13.90;61.00;;;;;;5087676;27;20450;-86
2023/01/07 07:34:46;;;;;;;12.60;6.40;;;13.90;61.00;;;;;;5053609;28;20859;-86
2023/01/07 07:37:14;;;;;;;8.10;5.93;;;14.00;60.80;;;;;;5080550;28;20435;-86
2023/01/07 07:39:41;;;;;;;11.13;6.67;;;14.10;61.10;;;;;;5069576;28;20462;-86
2023/01/07 07:42:08;;;;;;;10.20;6.80;;;14.20;60.60;;;;;;5054239;28;20459;-86
2023/01/07 07:44:36;;;;;;;9.13;6.80;;;14.30;60.00;;;;;;5082742;28;20451;-86
2023/01/07 07:47:03;;;;;;;8.83;5.70;;;14.30;59.70;;;;;;5066685;28;20485;-85
2023/01/07 07:49:30;;;;;;;7.77;5.20;;;14.30;59.70;;;;;;5079861;28;20536;-86
2023/01/07 07:51:57;;;;;;;8.93;6.20;;;14.20;59.80;;;;;;5047799;28;20457;-86
2023/01/07 07:54:26;;;;;;;10.70;8.20;;;14.20;60.40;;;;;;5069992;28;20450;-86
2023/01/07 07:56:53;;;;;;;8.00;6.50;;;14.10;60.60;;;;;;5088259;28;20442;-83
2023/01/07 07:59:20;;;;;;;8.30;6.33;;;14.00;61.80;;;;;;5086563;28;20474;-86
2023/01/07 08:01:48;;;;;;;11.97;6.93;;;14.10;61.00;;;;;;5087867;28;20443;-87
2023/01/07 08:04:15;;;;;;;9.17;5.90;;;14.10;60.80;;;;;;5071372;28;20454;-86
2023/01/07 08:06:42;;;;;;;9.50;8.00;;;14.00;61.00;;;;;;5069049;28;21024;-86
2023/01/07 08:09:09;;;;;;;7.47;6.67;;;14.20;60.90;;;;;;5068807;28;20477;-86
2023/01/07 08:11:37;;;;;;;17.40;10.47;;;14.20;60.40;;;;;;5086863;28;20446;-86
2023/01/07 08:14:04;;;;;;;14.70;10.40;;;14.10;60.70;;;;;;5086821;28;20457;-86
2023/01/07 08:16:31;;;;;;;18.80;11.20;;;14.10;61.10;;;;;;5070885;28;20449;-86
2023/01/07 08:18:58;;;;;;;9.27;7.50;;;14.20;60.90;;;;;;5057287;28;20829;-85
2023/01/07 08:21:25;;;;;;;9.00;7.30;;;14.30;61.30;;;;;;5069368;28;20454;-86
2023/01/07 08:23:52;;;;;;;17.60;11.40;;;14.30;59.90;;;;;;5053530;28;20435;-86
2023/01/07 08:26:19;;;;;;;11.97;8.90;;;13.90;61.10;;;;;;5069433;28;20545;-85
2023/01/07 08:28:47;;;;;;;12.87;9.50;;;13.50;62.40;;;;;;5087415;28;20477;-85
2023/01/07 08:31:14;;;;;;;11.37;7.97;;;13.40;63.10;;;;;;5068798;27;20825;-86
2023/01/07 08:33:41;;;;;;;10.93;8.03;;;13.30;63.20;;;;;;5087386;28;20547;-86
2023/01/07 08:36:09;;;;;;;14.27;8.87;;;13.50;62.90;;;;;;5069848;28;20439;-86
2023/01/07 08:38:36;;;;;;;7.80;4.80;;;13.60;62.70;;;;;;5088082;27;20462;-86
2023/01/07 08:41:03;;;;;;;10.83;6.00;;;13.80;62.10;;;;;;5069788;28;20461;-86
2023/01/07 08:43:32;;;;;;;8.63;5.50;;;13.70;61.80;;;;;;5069152;28;20454;-85
2023/01/07 08:46:00;;;;;;;11.10;7.13;;;13.70;62.30;;;;;;5052116;28;20451;-86
2023/01/07 08:48:27;;;;;;;12.17;7.13;;;13.90;62.00;;;;;;5069005;28;20470;-86
2023/01/07 08:50:54;;;;;;;11.97;6.50;;;13.90;61.90;;;;;;5048527;28;21025;-86
2023/01/07 08:53:22;;;;;;;8.70;7.00;;;13.80;61.70;;;;;;5070078;28;21484;-85
2023/01/07 08:55:50;;;;;;;15.97;9.77;;;13.50;62.60;;;;;;5072326;28;20443;-86
2023/01/07 08:58:16;;;;;;;15.50;10.00;;;13.50;63.00;;;;;;5085009;28;21744;-86
2023/01/07 09:00:44;;;;;;;10.90;8.83;;;13.80;62.40;;;;;;5059824;28;20450;-86
2023/01/07 09:03:12;;;;;;;8.73;7.37;;;13.70;62.30;;;;;;5085168;28;20523;-86
2023/01/07 09:05:39;;;;;;;10.90;6.30;;;13.70;62.30;;;;;;5061988;28;20539;-86
2023/01/07 09:08:06;;;;;;;9.13;7.70;;;13.90;62.20;;;;;;5104090;27;20473;-86
2023/01/07 09:10:33;;;;;;;11.80;8.40;;;14.00;61.90;;;;;;5086368;28;20467;-86
2023/01/07 09:13:00;;;;;;;11.70;7.73;;;14.10;61.60;;;;;;5069078;28;20473;-85
2023/01/07 09:15:27;;;;;;;8.40;6.80;;;14.20;61.30;;;;;;5085822;28;20450;-86
2023/01/07 09:17:54;;;;;;;8.73;7.10;;;14.00;61.60;;;;;;5070865;28;20469;-86
2023/01/07 09:20:22;;;;;;;10.13;6.70;;;13.90;62.30;;;;;;5066923;28;20447;-86
2023/01/07 09:22:49;;;;;;;8.83;6.43;;;14.00;62.60;;;;;;5070575;28;21042;-86
2023/01/07 09:25:16;;;;;;;6.23;4.87;;;14.10;61.70;;;;;;5061200;27;20446;-85
2023/01/07 09:27:44;;;;;;;5.03;4.40;;;14.10;61.00;;;;;;5083987;28;20478;-86
2023/01/07 09:30:12;;;;;;;8.70;5.50;;;14.10;61.00;;;;;;5103533;28;20512;-85
2023/01/07 09:32:39;;;;;;;6.33;5.47;;;14.20;60.60;;;;;;5069507;28;20879;-86
2023/01/07 09:35:07;;;;;;;8.90;6.10;;;14.20;60.50;;;;;;5060194;28;20526;-87
2023/01/07 09:37:35;;;;;;;10.27;7.03;;;14.30;60.50;;;;;;5085501;28;20439;-85
2023/01/07 09:40:03;;;;;;;15.87;9.70;;;14.20;60.80;;;;;;5083697;28;20679;-85
2023/01/07 09:42:40;;;;;;;14.67;9.17;;;14.30;60.80;;;;;;5043699;28;20447;-85
2023/01/07 09:45:16;;;;;;;7.83;6.73;;;14.30;60.50;;;;;;5086408;28;20457;-86
2023/01/07 09:47:46;;;;;;;11.73;6.47;;;14.20;60.60;;;;;;5103877;28;20478;-86
2023/01/07 09:50:19;;;;;;;6.00;5.40;;;14.20;60.90;;;;;;5084296;28;21140;-86
2023/01/07 09:52:51;;;;;;;11.10;7.03;;;14.30;61.00;;;;;;5085341;28;20447;-86
2023/01/07 09:55:23;;;;;;;12.57;8.60;;;14.30;61.30;;;;;;5076855;27;20444;-86
2023/01/07 09:57:50;;;;;;;14.10;9.60;;;14.40;61.10;;;;;;5063527;28;21340;-86
2023/01/07 10:00:20;;;;;;;23.83;13.10;;;14.40;60.50;;;;;;5049857;28;20447;-86
2023/01/07 10:03:03;;;;;;;14.17;10.67;;;14.30;60.90;;;;;;5070442;28;20447;-86
2023/01/07 10:05:37;;;;;;;10.53;8.23;;;14.30;60.90;;;;;;5060283;28;20439;-85
2023/01/07 10:08:16;;;;;;;9.03;7.80;;;14.40;60.90;;;;;;5067944;28;20475;-86
2023/01/07 10:10:49;;;;;;;17.23;11.90;;;14.60;60.60;;;;;;5065742;28;20447;-85
2023/01/07 10:13:35;;;;;;;13.70;9.00;;;14.60;60.30;;;;;;5100763;27;20500;-83
2023/01/07 10:16:08;;;;;;;11.43;7.90;;;14.50;60.50;;;;;;5067492;28;20818;-86
2023/01/07 10:18:44;;;;;;;17.10;10.90;;;14.60;60.30;;;;;;5084472;28;20469;-86
2023/01/07 10:21:20;;;;;;;5.90;5.17;;;14.70;59.90;;;;;;5060023;28;20496;-86
2023/01/07 10:23:53;;;;;;;6.70;4.90;;;14.70;58.90;;;;;;5084333;28;20447;-86
2023/01/07 10:26:30;;;;;;;4.27;3.70;;;14.60;58.20;;;;;;5049872;27;20991;-86
2023/01/07 10:29:01;;;;;;;5.73;4.10;;;14.70;57.70;;;;;;5046996;28;21136;-85
2023/01/07 10:31:29;;;;;;;7.70;5.37;;;14.60;57.00;;;;;;5063914;27;20446;-85
2023/01/07 10:33:57;;;;;;;3.40;2.70;;;14.60;56.90;;;;;;5080659;28;20448;-84
2023/01/07 10:36:27;;;;;;;9.53;5.20;;;14.20;57.20;;;;;;5069346;28;20451;-85
2023/01/07 10:39:02;;;;;;;58.60;29.00;;;13.80;56.90;;;;;;5067705;28;20473;-85
2023/01/07 10:41:42;;;;;;;12.77;6.60;;;13.80;56.70;;;;;;5100359;28;20445;-85
2023/01/07 10:44:35;;;;;;;13.53;8.23;;;13.90;57.30;;;;;;5047508;28;20446;-85
2023/01/07 10:47:12;;;;;;;3.07;2.67;;;14.00;57.50;;;;;;5048242;28;20470;-85
2023/01/07 10:49:54;;;;;;;18.83;14.53;;;14.00;56.80;;;;;;5066280;28;20541;-85
2023/01/07 10:52:31;;;;;;;7.73;6.93;;;13.90;56.60;;;;;;5082711;28;20446;-84
2023/01/07 10:55:15;;;;;;;6.73;6.03;;;14.20;56.70;;;;;;5083722;28;20470;-84
2023/01/07 10:57:42;;;;;;;5.97;4.00;;;14.20;56.30;;;;;;5084243;28;20550;-85
2023/01/07 11:00:14;;;;;;;5.30;4.80;;;14.30;56.30;;;;;;5040081;28;20444;-85
2023/01/07 11:02:44;;;;;;;8.73;6.13;;;14.10;56.10;;;;;;5081455;28;20500;-86
2023/01/07 11:05:12;;;;;;;2.40;2.20;;;14.00;56.50;;;;;;5056943;28;20509;-87
2023/01/07 11:07:43;;;;;;;2.37;2.17;;;14.10;56.40;;;;;;5080707;28;20479;-86
2023/01/07 11:10:16;;;;;;;2.67;2.47;;;14.10;55.90;;;;;;5062192;28;20815;-86
2023/01/07 11:12:47;;;;;;;2.33;2.07;;;14.10;54.80;;;;;;5099188;28;20451;-86
2023/01/07 11:15:19;;;;;;;3.43;3.13;;;14.20;54.30;;;;;;5079537;28;20462;-84
2023/01/07 11:17:50;;;;;;;3.00;2.80;;;14.10;54.50;;;;;;5063444;28;20791;-85
2023/01/07 11:20:42;;;;;;;2.00;1.90;;;14.10;54.90;;;;;;5088990;28;20443;-85
2023/01/07 11:23:33;;;;;;;2.70;2.50;;;14.00;54.50;;;;;;5063178;28;20447;-86
2023/01/07 11:26:17;;;;;;;2.30;2.03;;;13.90;54.60;;;;;;5064412;28;21169;-86
2023/01/07 11:28:51;;;;;;;2.80;2.60;;;13.90;54.50;;;;;;5061805;28;20576;-86
2023/01/07 11:31:19;;;;;;;2.30;2.10;;;14.10;54.50;;;;;;5056975;28;20443;-86
2023/01/07 11:33:48;;;;;;;2.07;1.87;;;14.20;54.80;;;;;;5064416;28;20544;-86
2023/01/07 11:36:16;;;;;;;3.00;2.50;;;14.20;54.70;;;;;;5079206;28;20503;-86
2023/01/07 11:38:43;;;;;;;3.90;2.47;;;14.30;54.00;;;;;;5080184;28;20476;-86
2023/01/07 11:41:23;;;;;;;4.33;2.47;;;14.30;53.80;;;;;;5060840;28;20453;-86
2023/01/07 11:43:52;;;;;;;4.97;4.43;;;14.40;53.90;;;;;;5063628;28;20450;-86
2023/01/07 11:46:21;;;;;;;2.30;2.10;;;14.20;53.30;;;;;;5046777;28;20485;-86
2023/01/07 11:48:53;;;;;;;2.30;2.10;;;14.40;53.40;;;;;;5057246;28;20458;-87
2023/01/07 11:51:22;;;;;;;2.43;2.20;;;14.50;53.20;;;;;;5079576;28;20461;-85
2023/01/07 11:53:55;;;;;;;3.33;2.30;;;14.30;52.40;;;;;;5049150;28;20957;-86
2023/01/07 11:56:26;;;;;;;4.53;2.80;;;14.20;53.70;;;;;;5064417;28;20446;-85
2023/01/07 11:59:22;;;;;;;2.57;2.37;;;14.20;54.20;;;;;;5050794;28;20466;-86
2023/01/07 12:01:50;;;;;;;6.50;3.87;;;14.40;53.40;;;;;;5044437;28;20846;-85
2023/01/07 12:04:21;;;;;;;1.50;1.40;;;14.10;53.60;;;;;;5043283;28;20454;-87
2023/01/07 12:06:50;;;;;;;2.00;1.80;;;13.90;53.80;;;;;;5067634;28;20446;-86
2023/01/07 12:09:24;;;;;;;3.27;1.87;;;13.60;54.60;;;;;;5056400;28;20470;-86
2023/01/07 12:11:54;;;;;;;1.87;1.60;;;13.60;54.20;;;;;;5083963;28;20940;-86
2023/01/07 12:14:26;;;;;;;7.93;7.03;;;13.60;54.90;;;;;;5048644;28;20799;-85
2023/01/07 12:16:55;;;;;;;4.20;2.77;;;13.90;54.60;;;;;;5049314;28;20512;-85
2023/01/07 12:19:35;;;;;;;2.50;1.70;;;13.80;53.20;;;;;;5085844;28;20463;-86
2023/01/07 12:22:11;;;;;;;1.70;1.60;;;13.40;54.60;;;;;;5066056;28;20827;-85
2023/01/07 12:24:51;;;;;;;5.67;2.00;;;13.50;54.80;;;;;;5058699;28;20458;-86
2023/01/07 12:27:31;;;;;;;2.00;1.80;;;13.70;55.30;;;;;;5046689;28;20919;-84
2023/01/07 12:30:10;;;;;;;4.63;2.03;;;13.90;54.10;;;;;;5067471;28;20446;-85
2023/01/07 12:32:46;;;;;;;1.97;1.57;;;13.50;54.60;;;;;;5048867;28;20462;-85
2023/01/07 12:35:19;;;;;;;22.17;8.23;;;13.70;54.90;;;;;;5078179;28;20442;-85
2023/01/07 12:37:52;;;;;;;2.20;2.00;;;13.50;54.40;;;;;;5061498;28;20473;-85
2023/01/07 12:40:28;;;;;;;1.70;1.60;;;13.20;55.50;;;;;;5081407;28;20443;-86
2023/01/07 12:43:01;;;;;;;2.07;1.33;;;13.30;54.90;;;;;;5098232;28;20442;-85
2023/01/07 12:45:33;;;;;;;2.60;1.90;;;13.20;55.10;;;;;;5073205;28;20454;-85
2023/01/07 12:48:03;;;;;;;2.07;1.87;;;13.30;54.80;;;;;;5100781;27;20475;-85
2023/01/07 12:50:37;;;;;;;2.90;2.53;;;13.40;55.00;;;;;;5082841;28;20459;-85
2023/01/07 12:53:12;;;;;;;1.60;1.50;;;13.70;55.10;;;;;;5049453;28;20439;-85
2023/01/07 12:55:44;;;;;;;4.80;1.80;;;13.40;54.90;;;;;;5060300;28;21153;-85
2023/01/07 12:58:19;;;;;;;9.00;4.03;;;13.40;55.60;;;;;;5073359;28;21176;-84
2023/01/07 13:00:52;;;;;;;7.90;2.73;;;13.60;54.60;;;;;;5047223;28;20449;-85
2023/01/07 13:03:32;;;;;;;5.37;3.20;;;13.80;54.50;;;;;;5059667;28;20434;-85